East Derry, New Hampshire
Current Conditions -  °F | °C
As of 5:53 AM on Thursday 18 Dec 2014 (Local Time) from KMHT Reporting Station
Light Snow Light Snow  
Wind Chill: 32°   Ceiling: 5000
Heat Index: 37°   Visibility: 7mi
Dew Point: 32°   Wind: 7mph
Humidity: 82%   Direction: 260°W
Pressure: 29.7"   Gusts: NA
Location:  42.89°N, 71.29°W
Report Text: KMHT 181053Z 26006KT 7SM -RASN OVC050 03/00 A2970 RMK AO2 RAB39 SLP072 P0000 T00280000
Loading
Personal Weather Stations






























Interactive Weather Map New forecast layout! Learn more

10-Day Weather Forecast

Advertisements
Track Severe Weather on mobile